N757AD KSAT-KSSF
Flight info
| Callsign | N757AD |
|---|---|
| Flight time | 0h 11m |
| Altitude | VFR |
| Route | SOUTH VFR |
| Aircraft | C152/L-VGD/C |
Departure
| Time | 2026-05-08 21:05 |
|---|---|
| Airport | San Antonio International Airport (KSAT) |
Arrival
| Time | 2026-05-08 21:17 |
|---|---|
| Airport | Stinson Municipal Airport (KSSF) |
| Time | Latitude | Longitude | Altitude | Speed | Heading |
|---|---|---|---|---|---|
| 2026-05-08 20:50 | 29.53576 | -98.46814 | 792 ft | 0 kts | 39° |
| 2026-05-08 20:51 | 29.53577 | -98.46808 | 792 ft | 4 kts | 126° |
| 2026-05-08 20:51 | 29.53506 | -98.46787 | 792 ft | 16 kts | 181° |
| 2026-05-08 20:51 | 29.53496 | -98.46889 | 792 ft | 20 kts | 311° |
| 2026-05-08 20:52 | 29.53600 | -98.47021 | 792 ft | 25 kts | 312° |
| 2026-05-08 20:52 | 29.53721 | -98.47177 | 792 ft | 27 kts | 310° |
| 2026-05-08 20:52 | 29.53846 | -98.47337 | 792 ft | 27 kts | 313° |
| 2026-05-08 20:52 | 29.53897 | -98.47404 | 792 ft | 0 kts | 309° |
| 2026-05-08 20:53 | 29.53908 | -98.47410 | 792 ft | 7 kts | 341° |
| 2026-05-08 20:53 | 29.53956 | -98.47418 | 792 ft | 8 kts | 359° |
| 2026-05-08 20:53 | 29.54056 | -98.47477 | 792 ft | 16 kts | 315° |
| 2026-05-08 20:54 | 29.54138 | -98.47579 | 792 ft | 19 kts | 311° |
| 2026-05-08 20:54 | 29.54235 | -98.47706 | 792 ft | 22 kts | 307° |
| 2026-05-08 20:54 | 29.54291 | -98.47857 | 792 ft | 15 kts | 292° |
| 2026-05-08 20:54 | 29.54306 | -98.47902 | 792 ft | 7 kts | 289° |
| 2026-05-08 20:55 | 29.54326 | -98.47950 | 792 ft | 7 kts | 295° |
| 2026-05-08 20:55 | 29.54347 | -98.47987 | 792 ft | 4 kts | 334° |
| 2026-05-08 20:55 | 29.54366 | -98.48007 | 792 ft | 4 kts | 310° |
| 2026-05-08 20:55 | 29.54381 | -98.48030 | 792 ft | 3 kts | 307° |
| 2026-05-08 20:56 | 29.54379 | -98.48019 | 792 ft | 9 kts | 133° |
| 2026-05-08 20:56 | 29.54303 | -98.47893 | 792 ft | 23 kts | 120° |
| 2026-05-08 20:56 | 29.54219 | -98.47767 | 792 ft | 18 kts | 127° |
| 2026-05-08 20:56 | 29.54146 | -98.47677 | 792 ft | 13 kts | 153° |
| 2026-05-08 20:57 | 29.54069 | -98.47632 | 792 ft | 10 kts | 173° |
| 2026-05-08 20:57 | 29.53576 | -98.46814 | 792 ft | 0 kts | 41° |
| 2026-05-08 20:57 | 29.53585 | -98.46824 | 792 ft | 7 kts | 282° |
| 2026-05-08 20:57 | 29.53603 | -98.46900 | 792 ft | 15 kts | 290° |
| 2026-05-08 20:58 | 29.53673 | -98.47071 | 792 ft | 25 kts | 305° |
| 2026-05-08 20:58 | 29.53761 | -98.47211 | 792 ft | 19 kts | 310° |
| 2026-05-08 20:58 | 29.53845 | -98.47328 | 792 ft | 21 kts | 311° |
| 2026-05-08 20:58 | 29.53936 | -98.47472 | 792 ft | 22 kts | 300° |
| 2026-05-08 20:59 | 29.53966 | -98.47521 | 792 ft | 0 kts | 312° |
| 2026-05-08 20:59 | 29.53576 | -98.46814 | 792 ft | 0 kts | 41° |
| 2026-05-08 21:00 | 29.53577 | -98.46814 | 792 ft | 1 kts | 26° |
| 2026-05-08 21:00 | 29.53564 | -98.46872 | 792 ft | 16 kts | 251° |
| 2026-05-08 21:00 | 29.53600 | -98.47015 | 792 ft | 24 kts | 312° |
| 2026-05-08 21:01 | 29.53724 | -98.47181 | 792 ft | 30 kts | 313° |
| 2026-05-08 21:01 | 29.53857 | -98.47357 | 792 ft | 29 kts | 296° |
| 2026-05-08 21:01 | 29.53931 | -98.47559 | 792 ft | 25 kts | 285° |
| 2026-05-08 21:01 | 29.53958 | -98.47765 | 792 ft | 27 kts | 275° |
| 2026-05-08 21:02 | 29.53985 | -98.47979 | 792 ft | 27 kts | 284° |
| 2026-05-08 21:02 | 29.54019 | -98.48110 | 792 ft | 3 kts | 144° |
| 2026-05-08 21:02 | 29.54026 | -98.48086 | 792 ft | 2 kts | 148° |
| 2026-05-08 21:02 | 29.54022 | -98.48087 | 792 ft | 0 kts | 224° |
| 2026-05-08 21:04 | 29.54017 | -98.48093 | 792 ft | 5 kts | 224° |
| 2026-05-08 21:04 | 29.53952 | -98.48130 | 792 ft | 12 kts | 159° |
| 2026-05-08 21:04 | 29.53850 | -98.48006 | 792 ft | 40 kts | 131° |
| 2026-05-08 21:04 | 29.53585 | -98.47684 | 844 ft | 64 kts | 129° |
| 2026-05-08 21:05 | 29.53257 | -98.47295 | 999 ft | 69 kts | 129° |
| 2026-05-08 21:05 | 29.52920 | -98.46892 | 1166 ft | 71 kts | 132° |
| 2026-05-08 21:05 | 29.52577 | -98.46530 | 1370 ft | 67 kts | 129° |
| 2026-05-08 21:05 | 29.52228 | -98.46123 | 1540 ft | 73 kts | 129° |
| 2026-05-08 21:06 | 29.51881 | -98.45707 | 1711 ft | 73 kts | 130° |
| 2026-05-08 21:06 | 29.51547 | -98.45293 | 1817 ft | 65 kts | 124° |
| 2026-05-08 21:06 | 29.51269 | -98.44845 | 1825 ft | 71 kts | 117° |
| 2026-05-08 21:06 | 29.51074 | -98.44354 | 1927 ft | 69 kts | 110° |
| 2026-05-08 21:07 | 29.50862 | -98.43856 | 1961 ft | 71 kts | 130° |
| 2026-05-08 21:07 | 29.50477 | -98.43496 | 2079 ft | 70 kts | 144° |
| 2026-05-08 21:07 | 29.50068 | -98.43177 | 2085 ft | 72 kts | 141° |
| 2026-05-08 21:07 | 29.49702 | -98.42823 | 2129 ft | 71 kts | 140° |
| 2026-05-08 21:08 | 29.49311 | -98.42472 | 2115 ft | 71 kts | 141° |
| 2026-05-08 21:08 | 29.48917 | -98.42124 | 2120 ft | 73 kts | 141° |
| 2026-05-08 21:08 | 29.48528 | -98.41778 | 2122 ft | 73 kts | 143° |
| 2026-05-08 21:08 | 29.48089 | -98.41476 | 2071 ft | 75 kts | 162° |
| 2026-05-08 21:09 | 29.47583 | -98.41386 | 2054 ft | 74 kts | 168° |
| 2026-05-08 21:09 | 29.47064 | -98.41293 | 2065 ft | 73 kts | 171° |
| 2026-05-08 21:09 | 29.46557 | -98.41236 | 2081 ft | 71 kts | 172° |
| 2026-05-08 21:09 | 29.46042 | -98.41166 | 2054 ft | 75 kts | 170° |
| 2026-05-08 21:10 | 29.45525 | -98.41077 | 2076 ft | 75 kts | 167° |
| 2026-05-08 21:10 | 29.45016 | -98.40955 | 2083 ft | 76 kts | 164° |
| 2026-05-08 21:10 | 29.44526 | -98.40816 | 2112 ft | 73 kts | 164° |
| 2026-05-08 21:10 | 29.44013 | -98.40682 | 2094 ft | 76 kts | 168° |
| 2026-05-08 21:11 | 29.43497 | -98.40595 | 2108 ft | 73 kts | 175° |
| 2026-05-08 21:11 | 29.42975 | -98.40664 | 2079 ft | 76 kts | 189° |
| 2026-05-08 21:11 | 29.42480 | -98.40823 | 2078 ft | 74 kts | 192° |
| 2026-05-08 21:11 | 29.41986 | -98.41077 | 2041 ft | 77 kts | 202° |
| 2026-05-08 21:12 | 29.41522 | -98.41370 | 2045 ft | 77 kts | 206° |
| 2026-05-08 21:12 | 29.41091 | -98.41692 | 2068 ft | 75 kts | 211° |
| 2026-05-08 21:12 | 29.40668 | -98.42045 | 2056 ft | 74 kts | 212° |
| 2026-05-08 21:12 | 29.40249 | -98.42409 | 2012 ft | 77 kts | 214° |
| 2026-05-08 21:13 | 29.39822 | -98.42754 | 2014 ft | 74 kts | 212° |
| 2026-05-08 21:13 | 29.39388 | -98.43070 | 2035 ft | 72 kts | 210° |
| 2026-05-08 21:13 | 29.38957 | -98.43381 | 2031 ft | 73 kts | 210° |
| 2026-05-08 21:13 | 29.38536 | -98.43707 | 2027 ft | 74 kts | 218° |
| 2026-05-08 21:14 | 29.38219 | -98.44167 | 2046 ft | 72 kts | 235° |
| 2026-05-08 21:14 | 29.37933 | -98.44662 | 2044 ft | 75 kts | 234° |
| 2026-05-08 21:14 | 29.37658 | -98.45158 | 2052 ft | 75 kts | 237° |
| 2026-05-08 21:14 | 29.37378 | -98.45689 | 2034 ft | 79 kts | 236° |
| 2026-05-08 21:15 | 29.37065 | -98.46203 | 2014 ft | 81 kts | 229° |
| 2026-05-08 21:15 | 29.36707 | -98.46694 | 2028 ft | 80 kts | 226° |
| 2026-05-08 21:15 | 29.36388 | -98.47225 | 2026 ft | 81 kts | 239° |
| 2026-05-08 21:15 | 29.36151 | -98.47813 | 1877 ft | 82 kts | 243° |
| 2026-05-08 21:16 | 29.35764 | -98.48253 | 1648 ft | 81 kts | 200° |
| 2026-05-08 21:16 | 29.35224 | -98.48222 | 1336 ft | 82 kts | 146° |
| 2026-05-08 21:16 | 29.34795 | -98.47831 | 1022 ft | 74 kts | 135° |
| 2026-05-08 21:16 | 29.34450 | -98.47465 | 756 ft | 62 kts | 134° |
| 2026-05-08 21:17 | 29.34129 | -98.47186 | 620 ft | 55 kts | 138° |
| 2026-05-08 21:17 | 29.33852 | -98.46961 | 572 ft | 39 kts | 144° |
| 2026-05-08 21:17 | 29.33537 | -98.46717 | 603 ft | 71 kts | 142° |
| 2026-05-08 21:17 | 29.33114 | -98.46387 | 804 ft | 72 kts | 142° |
| 2026-05-08 21:18 | 29.32857 | -98.45923 | 895 ft | 76 kts | 87° |
| 2026-05-08 21:18 | 29.32978 | -98.45359 | 1096 ft | 74 kts | 56° |
| 2026-05-08 21:18 | 29.33414 | -98.45037 | 1216 ft | 78 kts | 5° |
| 2026-05-08 21:18 | 29.33862 | -98.45414 | 1331 ft | 91 kts | 297° |
| 2026-05-08 21:19 | 29.34159 | -98.46018 | 1321 ft | 89 kts | 311° |
| 2026-05-08 21:19 | 29.34391 | -98.46649 | 1318 ft | 90 kts | 290° |
| 2026-05-08 21:19 | 29.34533 | -98.47330 | 1285 ft | 85 kts | 277° |
| 2026-05-08 21:19 | 29.34531 | -98.47996 | 1201 ft | 82 kts | 269° |
| 2026-05-08 21:20 | 29.34552 | -98.48664 | 971 ft | 88 kts | 284° |
| 2026-05-08 21:20 | 29.34693 | -98.49331 | 994 ft | 85 kts | 276° |
| 2026-05-08 21:20 | 29.34821 | -98.49943 | 1030 ft | 80 kts | 316° |
| 2026-05-08 21:20 | 29.35261 | -98.50241 | 1116 ft | 78 kts | 348° |
| 2026-05-08 21:21 | 29.35738 | -98.50180 | 1112 ft | 76 kts | 50° |
| 2026-05-08 21:21 | 29.35970 | -98.49657 | 1142 ft | 66 kts | 69° |
| 2026-05-08 21:21 | 29.36113 | -98.49135 | 1059 ft | 76 kts | 67° |
| 2026-05-08 21:21 | 29.36185 | -98.48568 | 1080 ft | 73 kts | 104° |
| 2026-05-08 21:22 | 29.35736 | -98.48248 | 999 ft | 84 kts | 160° |
| 2026-05-08 21:22 | 29.35368 | -98.48111 | 964 ft | 82 kts | 157° |
| 2026-05-08 21:22 | 29.34735 | -98.47671 | 804 ft | 72 kts | 136° |
| 2026-05-08 21:22 | 29.34366 | -98.47383 | 687 ft | 59 kts | 139° |
| 2026-05-08 21:23 | 29.34040 | -98.47111 | 596 ft | 56 kts | 139° |
| 2026-05-08 21:23 | 29.33785 | -98.46908 | 570 ft | 28 kts | 145° |
| 2026-05-08 21:23 | 29.33780 | -98.46856 | 571 ft | 5 kts | 43° |
| 2026-05-08 21:23 | 29.33787 | -98.46849 | 573 ft | 0 kts | 43° |
| 2026-05-08 21:24 | 29.33799 | -98.46842 | 570 ft | 4 kts | 322° |
| 2026-05-08 21:24 | 29.33840 | -98.46881 | 570 ft | 12 kts | 328° |
| 2026-05-08 21:25 | 29.33923 | -98.46945 | 574 ft | 16 kts | 324° |
| 2026-05-08 21:25 | 29.33998 | -98.47006 | 577 ft | 12 kts | 323° |
| 2026-05-08 21:25 | 29.34067 | -98.47063 | 579 ft | 13 kts | 322° |
| 2026-05-08 21:25 | 29.34140 | -98.47121 | 582 ft | 12 kts | 321° |
| 2026-05-08 21:26 | 29.34162 | -98.47144 | 583 ft | 0 kts | 290° |
| 2026-05-08 21:26 | 29.34164 | -98.47158 | 583 ft | 7 kts | 269° |
| 2026-05-08 21:26 | 29.34127 | -98.47177 | 583 ft | 15 kts | 151° |
| 2026-05-08 21:26 | 29.33972 | -98.47056 | 578 ft | 50 kts | 143° |
| 2026-05-08 21:27 | 29.33571 | -98.46773 | 644 ft | 79 kts | 142° |
| 2026-05-08 21:27 | 29.32968 | -98.46301 | 905 ft | 79 kts | 140° |
| 2026-05-08 21:27 | 29.32759 | -98.45959 | 989 ft | 82 kts | 104° |
| 2026-05-08 21:27 | 29.32827 | -98.45375 | 1238 ft | 67 kts | 68° |
| 2026-05-08 21:28 | 29.33148 | -98.44918 | 1226 ft | 85 kts | 17° |
| 2026-05-08 21:28 | 29.33692 | -98.45068 | 1402 ft | 85 kts | 334° |
| 2026-05-08 21:28 | 29.34152 | -98.45488 | 1506 ft | 86 kts | 324° |
| 2026-05-08 21:28 | 29.34597 | -98.45932 | 1577 ft | 82 kts | 321° |
| 2026-05-08 21:29 | 29.35020 | -98.46365 | 1585 ft | 81 kts | 326° |
| 2026-05-08 21:29 | 29.35474 | -98.46773 | 1519 ft | 83 kts | 330° |
| 2026-05-08 21:29 | 29.35900 | -98.47190 | 1468 ft | 82 kts | 310° |
| 2026-05-08 21:29 | 29.36060 | -98.47822 | 1379 ft | 84 kts | 276° |
| 2026-05-08 21:30 | 29.35908 | -98.48449 | 1267 ft | 83 kts | 234° |
| 2026-05-08 21:30 | 29.35432 | -98.48687 | 1176 ft | 77 kts | 168° |
| 2026-05-08 21:30 | 29.35037 | -98.48376 | 1047 ft | 71 kts | 122° |
| 2026-05-08 21:30 | 29.34773 | -98.47896 | 895 ft | 68 kts | 117° |
| 2026-05-08 21:31 | 29.34493 | -98.47493 | 754 ft | 65 kts | 137° |
| 2026-05-08 21:31 | 29.34139 | -98.47207 | 640 ft | 59 kts | 141° |
| 2026-05-08 21:31 | 29.33819 | -98.46941 | 576 ft | 52 kts | 135° |
| 2026-05-08 21:31 | 29.33532 | -98.46712 | 580 ft | 64 kts | 141° |
| 2026-05-08 21:32 | 29.33126 | -98.46438 | 750 ft | 72 kts | 146° |
| 2026-05-08 21:32 | 29.32667 | -98.46165 | 936 ft | 76 kts | 148° |
| 2026-05-08 21:32 | 29.32422 | -98.45687 | 1168 ft | 74 kts | 91° |
| 2026-05-08 21:32 | 29.32538 | -98.45098 | 1360 ft | 75 kts | 69° |
| 2026-05-08 21:33 | 29.32883 | -98.44663 | 1493 ft | 82 kts | 13° |
| 2026-05-08 21:33 | 29.33471 | -98.44722 | 1630 ft | 84 kts | 343° |
| 2026-05-08 21:33 | 29.33992 | -98.45040 | 1617 ft | 87 kts | 333° |
| 2026-05-08 21:33 | 29.34490 | -98.45444 | 1584 ft | 86 kts | 326° |
| 2026-05-08 21:34 | 29.34923 | -98.45925 | 1509 ft | 88 kts | 322° |
| 2026-05-08 21:34 | 29.35371 | -98.46373 | 1408 ft | 85 kts | 324° |
| 2026-05-08 21:34 | 29.35780 | -98.46838 | 1349 ft | 81 kts | 307° |
| 2026-05-08 21:34 | 29.35832 | -98.47465 | 1268 ft | 83 kts | 260° |
| 2026-05-08 21:35 | 29.35580 | -98.48021 | 1152 ft | 76 kts | 224° |
| 2026-05-08 21:35 | 29.35114 | -98.48124 | 973 ft | 69 kts | 148° |
| 2026-05-08 21:35 | 29.34769 | -98.47766 | 822 ft | 68 kts | 126° |
| 2026-05-08 21:35 | 29.34417 | -98.47409 | 714 ft | 65 kts | 135° |
| 2026-05-08 21:36 | 29.34061 | -98.47131 | 595 ft | 55 kts | 137° |
| 2026-05-08 21:36 | 29.33794 | -98.46916 | 570 ft | 59 kts | 145° |
| 2026-05-08 21:36 | 29.33393 | -98.46631 | 697 ft | 73 kts | 144° |
| 2026-05-08 21:36 | 29.32944 | -98.46315 | 897 ft | 76 kts | 146° |
| 2026-05-08 21:37 | 29.32646 | -98.45828 | 1005 ft | 79 kts | 99° |
| 2026-05-08 21:37 | 29.32736 | -98.45231 | 1145 ft | 79 kts | 65° |
| 2026-05-08 21:37 | 29.33016 | -98.44744 | 1312 ft | 77 kts | 37° |
| 2026-05-08 21:37 | 29.33549 | -98.44747 | 1454 ft | 89 kts | 330° |
| 2026-05-08 21:38 | 29.33928 | -98.45267 | 1629 ft | 80 kts | 308° |
| 2026-05-08 21:38 | 29.34235 | -98.45791 | 1596 ft | 80 kts | 309° |
| 2026-05-08 21:38 | 29.34574 | -98.46267 | 1546 ft | 75 kts | 317° |
| 2026-05-08 21:38 | 29.35031 | -98.46576 | 1471 ft | 74 kts | 345° |
| 2026-05-08 21:39 | 29.35509 | -98.46782 | 1394 ft | 76 kts | 346° |
| 2026-05-08 21:39 | 29.35927 | -98.47153 | 1347 ft | 84 kts | 302° |
| 2026-05-08 21:39 | 29.36026 | -98.47807 | 1216 ft | 84 kts | 270° |
| 2026-05-08 21:39 | 29.35724 | -98.48339 | 1081 ft | 85 kts | 200° |
| 2026-05-08 21:40 | 29.35188 | -98.48184 | 925 ft | 82 kts | 130° |
| 2026-05-08 21:40 | 29.34810 | -98.47725 | 890 ft | 77 kts | 127° |
| 2026-05-08 21:40 | 29.34404 | -98.47400 | 757 ft | 69 kts | 139° |
| 2026-05-08 21:41 | 29.33785 | -98.46909 | 570 ft | 19 kts | 146° |
| 2026-05-08 21:41 | 29.33766 | -98.46893 | 570 ft | 4 kts | 131° |
| 2026-05-08 21:41 | 29.33782 | -98.46851 | 575 ft | 5 kts | 43° |
| 2026-05-08 21:41 | 29.33801 | -98.46831 | 573 ft | 3 kts | 45° |
| 2026-05-08 21:42 | 29.33817 | -98.46847 | 572 ft | 11 kts | 294° |
| 2026-05-08 21:42 | 29.33867 | -98.46932 | 572 ft | 12 kts | 251° |
| 2026-05-08 21:42 | 29.33819 | -98.47006 | 575 ft | 12 kts | 229° |
| 2026-05-08 21:42 | 29.33757 | -98.47093 | 569 ft | 16 kts | 231° |
| 2026-05-08 21:43 | 29.33742 | -98.47205 | 571 ft | 14 kts | 283° |
| 2026-05-08 21:43 | 29.33764 | -98.47318 | 570 ft | 15 kts | 281° |
| 2026-05-08 21:43 | 29.33787 | -98.47442 | 574 ft | 15 kts | 286° |
| 2026-05-08 21:43 | 29.33809 | -98.47552 | 575 ft | 15 kts | 282° |
| 2026-05-08 21:44 | 29.33835 | -98.47686 | 577 ft | 18 kts | 282° |
| 2026-05-08 21:44 | 29.33863 | -98.47836 | 577 ft | 19 kts | 281° |
| 2026-05-08 21:44 | 29.33895 | -98.47959 | 579 ft | 10 kts | 328° |
| 2026-05-08 21:44 | 29.33953 | -98.47987 | 580 ft | 8 kts | 310° |
| 2026-05-08 21:45 | 29.33974 | -98.48002 | 580 ft | 0 kts | 356° |